createdAt,value
2023-08-04T00:00:56.226Z,100181.00
2023-08-04T00:03:24.411Z,100178.44
2023-08-04T00:05:52.608Z,100183.03
2023-08-04T00:08:20.803Z,100186.78
2023-08-04T00:10:48.933Z,100184.06
2023-08-04T00:13:17.055Z,100191.22
2023-08-04T00:15:47.148Z,100199.25
2023-08-04T00:18:15.254Z,100189.19
2023-08-04T00:20:43.380Z,100193.66
2023-08-04T00:23:11.477Z,100209.00
2023-08-04T00:25:39.593Z,100205.25
2023-08-04T00:28:07.704Z,100209.00
2023-08-04T00:30:35.812Z,100203.69
2023-08-04T00:33:05.615Z,100210.16
2023-08-04T00:35:33.821Z,100208.44
2023-08-04T00:38:01.927Z,100214.75
2023-08-04T00:40:30.221Z,100213.03
2023-08-04T00:42:58.371Z,100210.31
2023-08-04T00:45:27.332Z,100215.94
2023-08-04T00:47:55.457Z,100218.50
2023-08-04T00:50:25.156Z,100216.78
2023-08-04T00:52:53.298Z,100222.25
2023-08-04T00:55:21.999Z,100219.69
2023-08-04T00:57:50.915Z,100228.72
2023-08-04T01:00:19.027Z,100233.47
2023-08-04T01:02:47.201Z,100237.22
2023-08-04T01:05:15.531Z,100235.50
2023-08-04T01:07:49.999Z,100252.72
2023-08-04T01:10:22.963Z,100248.13
2023-08-04T01:12:58.221Z,100253.59
2023-08-04T01:15:27.108Z,100247.44
2023-08-04T01:17:55.809Z,100243.28
2023-08-04T01:20:24.477Z,100261.00
2023-08-04T01:22:54.391Z,100261.63
2023-08-04T01:25:25.659Z,100262.56
2023-08-04T01:28:00.181Z,100262.28
2023-08-04T01:30:29.470Z,100272.94
2023-08-04T01:32:57.657Z,100269.69
2023-08-04T01:35:25.770Z,100270.97
2023-08-04T01:37:55.256Z,100276.59
2023-08-04T01:40:23.490Z,100273.16
2023-08-04T01:42:51.607Z,100273.47
2023-08-04T01:45:19.785Z,100273.75
2023-08-04T01:47:49.769Z,100281.22
2023-08-04T01:50:18.192Z,100283.56
2023-08-04T01:52:46.314Z,100296.50
2023-08-04T01:55:15.830Z,100287.75
2023-08-04T01:57:43.948Z,100288.22
2023-08-04T02:00:14.582Z,100290.53
2023-08-04T02:02:42.839Z,100298.28
2023-08-04T02:05:13.007Z,100300.78
2023-08-04T02:07:41.101Z,100298.63
2023-08-04T02:10:11.185Z,100294.66
2023-08-04T02:12:42.186Z,100302.41
2023-08-04T02:15:11.114Z,100300.28
2023-08-04T02:17:41.404Z,100309.94
2023-08-04T02:20:13.253Z,100307.63
2023-08-04T02:22:41.403Z,100318.97
2023-08-04T02:25:09.931Z,100324.78
2023-08-04T02:27:38.082Z,100322.38
2023-08-04T02:30:09.756Z,100326.56
2023-08-04T02:32:37.855Z,100333.00
2023-08-04T02:35:06.759Z,100330.44
2023-08-04T02:37:34.856Z,100335.13
2023-08-04T02:40:03.382Z,100335.13
2023-08-04T02:42:31.479Z,100335.13
2023-08-04T02:44:59.810Z,100337.84
2023-08-04T02:47:29.694Z,100341.31
2023-08-04T02:49:57.799Z,100337.44
2023-08-04T02:52:25.902Z,100342.72
2023-08-04T02:54:56.378Z,100335.97
2023-08-04T02:57:29.337Z,100344.84
2023-08-04T02:59:57.644Z,100353.75
2023-08-04T03:02:26.070Z,100350.78
2023-08-04T03:04:55.611Z,100342.47
2023-08-04T03:07:23.905Z,100348.75
2023-08-04T03:09:52.024Z,100346.88
2023-08-04T03:12:20.136Z,100349.75
2023-08-04T03:14:48.227Z,100347.03
2023-08-04T03:17:16.636Z,100352.63
2023-08-04T03:19:44.703Z,100352.75
2023-08-04T03:22:15.367Z,100347.31
2023-08-04T03:24:43.530Z,100354.72
2023-08-04T03:27:11.624Z,100356.59
2023-08-04T03:29:39.700Z,100351.31
2023-08-04T03:32:08.320Z,100366.06
2023-08-04T03:34:36.424Z,100364.91
2023-08-04T03:37:04.872Z,100371.22
2023-08-04T03:39:34.345Z,100366.50
2023-08-04T03:42:02.477Z,100371.69
2023-08-04T03:44:30.587Z,100379.69
2023-08-04T03:46:58.720Z,100384.00
2023-08-04T03:49:26.816Z,100391.00
2023-08-04T03:51:54.913Z,100391.69
2023-08-04T03:54:23.030Z,100376.13
2023-08-04T03:56:52.512Z,100384.84
2023-08-04T03:59:20.604Z,100390.84
2023-08-04T04:01:49.252Z,100390.41
2023-08-04T04:04:17.620Z,100400.16
2023-08-04T04:06:45.798Z,100408.16
2023-08-04T04:09:15.710Z,100416.91
2023-08-04T04:11:43.846Z,100414.72
2023-08-04T04:14:13.388Z,100418.19
2023-08-04T04:16:41.581Z,100427.91
2023-08-04T04:19:09.884Z,100430.50
2023-08-04T04:21:38.655Z,100420.47
2023-08-04T04:24:06.902Z,100431.03
2023-08-04T04:26:35.008Z,100442.50
2023-08-04T04:29:03.555Z,100441.38
2023-08-04T04:31:33.018Z,100440.38
2023-08-04T04:34:01.108Z,100439.50
2023-08-04T04:36:29.252Z,100441.38
2023-08-04T04:38:57.376Z,100442.06
2023-08-04T04:41:25.482Z,100451.09
2023-08-04T04:43:53.569Z,100452.66
2023-08-04T04:46:21.767Z,100453.38
2023-08-04T04:48:51.236Z,100446.91
2023-08-04T04:51:19.389Z,100454.94
2023-08-04T04:53:47.604Z,100452.09
2023-08-04T04:56:15.748Z,100455.53
2023-08-04T04:58:43.846Z,100443.63
2023-08-04T05:01:12.065Z,100452.50
2023-08-04T05:03:40.208Z,100447.06
2023-08-04T05:06:09.725Z,100447.75
2023-08-04T05:08:37.835Z,100445.72
2023-08-04T05:11:05.955Z,100457.34
2023-08-04T05:13:34.181Z,100453.47
2023-08-04T05:16:02.416Z,100459.50
2023-08-04T05:18:30.531Z,100461.75
2023-08-04T05:20:58.661Z,100468.75
2023-08-04T05:23:28.248Z,100470.06
2023-08-04T05:25:56.424Z,100473.19
2023-08-04T05:28:25.800Z,100467.28
2023-08-04T05:30:57.327Z,100467.56
2023-08-04T05:33:25.777Z,100475.31
2023-08-04T05:35:54.766Z,100475.56
2023-08-04T05:38:23.918Z,100480.41
2023-08-04T05:40:53.497Z,100477.06
2023-08-04T05:43:21.662Z,100483.78
2023-08-04T05:45:50.122Z,100486.94
2023-08-04T05:48:18.363Z,100492.06
2023-08-04T05:50:46.582Z,100496.19
2023-08-04T05:53:14.879Z,100490.31
2023-08-04T05:55:42.977Z,100492.88
2023-08-04T05:58:12.454Z,100496.47
2023-08-04T06:00:40.619Z,100502.47
2023-08-04T06:03:08.760Z,100507.75
2023-08-04T06:05:36.842Z,100507.59
2023-08-04T06:08:05.607Z,100506.31
2023-08-04T06:10:34.716Z,100508.72
2023-08-04T06:13:03.689Z,100517.44
2023-08-04T06:15:33.304Z,100516.84
2023-08-04T06:18:01.478Z,100524.25
2023-08-04T06:20:29.717Z,100526.78
2023-08-04T06:22:57.878Z,100521.53
2023-08-04T06:25:26.039Z,100529.00
2023-08-04T06:27:54.564Z,100533.38
2023-08-04T06:30:22.955Z,100530.53
2023-08-04T06:32:52.684Z,100533.16
2023-08-04T06:35:20.974Z,100538.53
2023-08-04T06:37:49.173Z,100535.88
2023-08-04T06:40:17.805Z,100536.09
2023-08-04T06:42:45.943Z,100546.69
2023-08-04T06:45:14.021Z,100540.38
2023-08-04T06:47:42.201Z,100553.00
2023-08-04T06:50:12.331Z,100554.75
2023-08-04T06:52:40.601Z,100562.25
2023-08-04T06:55:09.415Z,100562.88
2023-08-04T06:57:37.541Z,100561.81
2023-08-04T07:00:06.791Z,100569.63
2023-08-04T07:02:34.981Z,100567.34
2023-08-04T07:05:05.184Z,100576.41
2023-08-04T07:07:34.790Z,100579.72
2023-08-04T07:10:03.771Z,100576.31
2023-08-04T07:12:31.882Z,100588.53
2023-08-04T07:14:59.975Z,100587.88
2023-08-04T07:17:28.131Z,100588.31
2023-08-04T07:19:56.250Z,100596.38
2023-08-04T07:22:24.458Z,100602.59
2023-08-04T07:24:55.180Z,100595.31
2023-08-04T07:27:23.316Z,100602.72
2023-08-04T07:29:51.431Z,100592.84
2023-08-04T07:32:20.091Z,100590.84
2023-08-04T07:34:48.238Z,100591.09
2023-08-04T07:37:16.366Z,100594.41
2023-08-04T07:39:44.460Z,100601.97
2023-08-04T07:42:13.957Z,100597.53
2023-08-04T07:44:42.062Z,100608.78
2023-08-04T07:47:10.184Z,100606.91
2023-08-04T07:49:38.543Z,100605.00
2023-08-04T07:52:07.856Z,100618.69
2023-08-04T07:54:36.205Z,100617.69
2023-08-04T07:57:05.024Z,100613.63
2023-08-04T07:59:35.329Z,100615.03
2023-08-04T08:02:03.473Z,100617.25
2023-08-04T08:04:31.634Z,100614.38
2023-08-04T08:06:59.793Z,100620.75
2023-08-04T08:09:27.978Z,100615.97
2023-08-04T08:11:56.093Z,100624.22
2023-08-04T08:14:24.256Z,100623.03
2023-08-04T08:16:54.068Z,100624.44
2023-08-04T08:19:22.196Z,100624.06
2023-08-04T08:21:50.590Z,100630.06
2023-08-04T08:24:18.837Z,100632.97
2023-08-04T08:26:47.085Z,100643.09
2023-08-04T08:29:15.210Z,100634.00
2023-08-04T08:31:43.366Z,100649.94
2023-08-04T08:34:12.814Z,100644.81
2023-08-04T08:36:40.939Z,100639.06
2023-08-04T08:39:09.321Z,100642.69
2023-08-04T08:41:37.542Z,100650.88
2023-08-04T08:44:05.987Z,100650.69
2023-08-04T08:46:34.223Z,100641.00
2023-08-04T08:49:04.121Z,100632.38
2023-08-04T08:51:35.209Z,100647.28
2023-08-04T08:54:04.909Z,100646.22
2023-08-04T08:56:33.089Z,100647.41
2023-08-04T08:59:01.392Z,100645.41
2023-08-04T09:01:29.710Z,100639.66
2023-08-04T09:03:59.021Z,100647.44
2023-08-04T09:06:27.136Z,100652.94
2023-08-04T09:08:56.839Z,100662.91
2023-08-04T09:11:25.021Z,100662.91
2023-08-04T09:13:53.209Z,100662.03
2023-08-04T09:16:33.590Z,100660.59
2023-08-04T09:19:06.009Z,100674.09
2023-08-04T09:21:34.585Z,100673.03
2023-08-04T09:24:05.492Z,100680.00
2023-08-04T09:26:43.385Z,100679.53
2023-08-04T09:29:11.902Z,100684.69
2023-08-04T09:31:41.827Z,100683.66
2023-08-04T09:34:11.159Z,100691.53
2023-08-04T09:36:42.613Z,100697.00
2023-08-04T09:39:12.319Z,100692.56
2023-08-04T09:41:43.842Z,100693.63
2023-08-04T09:44:12.382Z,100686.25
2023-08-04T09:46:41.858Z,100685.44
2023-08-04T09:49:10.200Z,100697.09
2023-08-04T09:51:42.897Z,100689.06
2023-08-04T09:54:12.980Z,100691.66
2023-08-04T09:56:41.261Z,100698.34
2023-08-04T09:59:09.857Z,100693.69
2023-08-04T10:01:38.303Z,100710.09
2023-08-04T10:04:07.386Z,100705.44
2023-08-04T10:06:35.740Z,100708.53
2023-08-04T10:09:04.506Z,100715.47
2023-08-04T10:11:34.014Z,100714.38
2023-08-04T10:14:02.842Z,100724.59
2023-08-04T10:16:34.053Z,100716.00
2023-08-04T10:19:03.362Z,100722.88
2023-08-04T10:21:35.361Z,100724.31
2023-08-04T10:24:06.028Z,100725.44
2023-08-04T10:26:35.908Z,100729.94
2023-08-04T10:29:09.771Z,100728.31
2023-08-04T10:31:54.337Z,100721.22
2023-08-04T10:34:28.252Z,100717.81
2023-08-04T10:37:07.395Z,100725.56
2023-08-04T10:39:37.336Z,100724.97
2023-08-04T10:42:17.636Z,100729.19
2023-08-04T10:44:54.069Z,100726.69
2023-08-04T10:47:36.258Z,100723.69
2023-08-04T10:50:05.625Z,100720.09
2023-08-04T10:52:35.178Z,100723.47
2023-08-04T10:55:05.748Z,100721.16
2023-08-04T10:57:36.208Z,100722.00
2023-08-04T11:00:06.680Z,100726.34
2023-08-04T11:02:35.573Z,100720.59
2023-08-04T11:05:05.157Z,100726.72
2023-08-04T11:07:34.072Z,100726.81
2023-08-04T11:10:05.907Z,100733.19
2023-08-04T11:12:35.682Z,100740.00
2023-08-04T11:15:03.982Z,100742.25
2023-08-04T11:17:32.192Z,100738.44
2023-08-04T11:20:00.479Z,100734.25
2023-08-04T11:22:28.629Z,100750.03
2023-08-04T11:24:56.740Z,100743.97
2023-08-04T11:27:24.867Z,100742.56
2023-08-04T11:29:57.330Z,100745.38
2023-08-04T11:32:27.010Z,100749.50
2023-08-04T11:34:57.161Z,100746.94
2023-08-04T11:37:25.789Z,100741.69
2023-08-04T11:39:56.204Z,100747.88
2023-08-04T11:42:25.841Z,100740.84
2023-08-04T11:44:53.973Z,100740.97
2023-08-04T11:47:25.960Z,100747.59
2023-08-04T11:49:54.948Z,100741.09
2023-08-04T11:52:24.492Z,100747.59
2023-08-04T11:54:54.250Z,100743.59
2023-08-04T11:57:23.694Z,100749.41
2023-08-04T11:59:53.887Z,100745.28
2023-08-04T12:02:23.895Z,100744.44
2023-08-04T12:05:07.093Z,100758.50
2023-08-04T12:07:35.549Z,100752.91
2023-08-04T12:10:03.923Z,100759.00
2023-08-04T12:12:38.949Z,100761.84
2023-08-04T12:15:08.424Z,100761.38
2023-08-04T12:17:39.970Z,100766.22
2023-08-04T12:20:09.638Z,100764.13
2023-08-04T12:22:38.475Z,100771.16
2023-08-04T12:25:07.464Z,100767.63
2023-08-04T12:27:36.240Z,100776.28
2023-08-04T12:30:04.718Z,100771.34
2023-08-04T12:32:35.132Z,100770.88
2023-08-04T12:35:05.496Z,100782.41
2023-08-04T12:37:33.637Z,100775.09
2023-08-04T12:40:01.756Z,100782.69
2023-08-04T12:42:30.008Z,100772.81
2023-08-04T12:44:58.141Z,100780.28
2023-08-04T12:47:26.287Z,100775.63
2023-08-04T12:49:54.550Z,100787.34
2023-08-04T12:52:24.161Z,100780.59
2023-08-04T12:54:52.274Z,100780.72
2023-08-04T12:57:20.401Z,100784.31
2023-08-04T12:59:48.474Z,100782.34
2023-08-04T13:02:16.854Z,100792.06
2023-08-04T13:04:45.138Z,100784.44
2023-08-04T13:07:13.284Z,100794.16
2023-08-04T13:09:42.761Z,100798.13
2023-08-04T13:12:10.989Z,100787.25
2023-08-04T13:14:39.121Z,100799.38
2023-08-04T13:17:07.765Z,100801.84
2023-08-04T13:19:35.933Z,100798.78
2023-08-04T13:22:05.090Z,100803.50
2023-08-04T13:24:33.252Z,100816.75
2023-08-04T13:27:06.239Z,100813.63
2023-08-04T13:29:34.326Z,100814.03
2023-08-04T13:32:02.537Z,100797.91
2023-08-04T13:34:30.687Z,100812.13
2023-08-04T13:36:58.789Z,100825.00
2023-08-04T13:39:27.003Z,100827.69
2023-08-04T13:41:55.201Z,100829.22
2023-08-04T13:44:24.702Z,100824.16
2023-08-04T13:46:52.860Z,100830.66
2023-08-04T13:49:21.102Z,100836.03
2023-08-04T13:51:49.886Z,100832.16
2023-08-04T13:54:18.436Z,100839.66
2023-08-04T13:56:46.580Z,100842.97
2023-08-04T13:59:15.651Z,100840.56
2023-08-04T14:01:45.295Z,100838.56
2023-08-04T14:04:15.542Z,100846.91
2023-08-04T14:06:43.676Z,100843.06
2023-08-04T14:09:11.760Z,100857.88
2023-08-04T14:11:40.235Z,100859.38
2023-08-04T14:14:08.898Z,100858.25
2023-08-04T14:16:38.788Z,100862.81
2023-08-04T14:19:08.531Z,100870.50
2023-08-04T14:21:36.754Z,100871.94
2023-08-04T14:24:05.244Z,100883.94
2023-08-04T14:26:33.348Z,100873.63
2023-08-04T14:29:01.548Z,100877.47
2023-08-04T14:31:29.689Z,100870.03
2023-08-04T14:33:57.800Z,100882.69
2023-08-04T14:36:27.290Z,100887.09
2023-08-04T14:38:55.366Z,100888.06
2023-08-04T14:41:23.547Z,100884.50
2023-08-04T14:43:52.860Z,100892.47
2023-08-04T14:46:21.175Z,100892.47
2023-08-04T14:48:49.330Z,100906.41
2023-08-04T14:51:17.426Z,100903.16
2023-08-04T14:53:46.896Z,100907.31
2023-08-04T14:56:15.032Z,100903.22
2023-08-04T14:58:43.218Z,100910.91
2023-08-04T15:01:11.523Z,100908.66
2023-08-04T15:03:41.105Z,100906.94
2023-08-04T15:06:13.879Z,100910.72
2023-08-04T15:08:42.225Z,100918.13
2023-08-04T15:11:12.651Z,100915.53
2023-08-04T15:13:40.939Z,100912.28
2023-08-04T15:16:09.738Z,100914.69
2023-08-04T15:18:38.006Z,100923.13
2023-08-04T15:21:06.373Z,100926.19
2023-08-04T15:23:34.506Z,100912.78
2023-08-04T15:26:02.701Z,100924.94
2023-08-04T15:28:32.232Z,100916.69
2023-08-04T15:31:06.242Z,100916.13
2023-08-04T15:33:35.547Z,100909.28
2023-08-04T15:36:04.256Z,100913.44
2023-08-04T15:38:32.411Z,100905.72
2023-08-04T15:41:01.816Z,100909.31
2023-08-04T15:43:30.341Z,100907.28
2023-08-04T15:45:59.833Z,100901.91
2023-08-04T15:48:27.999Z,100910.00
2023-08-04T15:51:00.600Z,100904.88
2023-08-04T15:53:28.822Z,100905.94
2023-08-04T15:55:57.160Z,100901.28
2023-08-04T15:58:25.882Z,100904.38
2023-08-04T16:00:54.332Z,100904.19
2023-08-04T16:03:23.815Z,100895.94
2023-08-04T16:05:59.873Z,100898.84
2023-08-04T16:08:28.081Z,100913.63
2023-08-04T16:10:59.832Z,100900.44
2023-08-04T16:13:27.994Z,100894.22
2023-08-04T16:16:00.379Z,100893.19
2023-08-04T16:18:31.553Z,100897.81
2023-08-04T16:20:59.754Z,100906.88
2023-08-04T16:23:28.048Z,100909.56
2023-08-04T16:25:56.525Z,100911.94
2023-08-04T16:28:24.761Z,100912.63
2023-08-04T16:30:52.847Z,100918.28
2023-08-04T16:33:21.137Z,100923.09
2023-08-04T16:35:50.631Z,100924.97
2023-08-04T16:38:18.766Z,100929.44
2023-08-04T16:40:46.918Z,100930.13
2023-08-04T16:43:15.173Z,100938.34
2023-08-04T16:45:43.706Z,100937.84
2023-08-04T16:48:11.946Z,100942.63
2023-08-04T16:50:40.188Z,100953.06
2023-08-04T16:53:09.709Z,100954.38
2023-08-04T16:55:37.830Z,100957.38
2023-08-04T16:58:05.965Z,100956.69
2023-08-04T17:00:34.066Z,100956.00
2023-08-04T17:03:03.201Z,100963.72
2023-08-04T17:05:31.989Z,100967.16
2023-08-04T17:08:00.199Z,100966.81
2023-08-04T17:10:32.256Z,100974.13
2023-08-04T17:13:00.395Z,100971.41
2023-08-04T17:15:36.549Z,100974.88
2023-08-04T17:18:05.778Z,100974.78
2023-08-04T17:20:33.924Z,100979.47
2023-08-04T17:23:02.032Z,100988.81
2023-08-04T17:25:33.176Z,100994.09
2023-08-04T17:28:01.328Z,101001.91
2023-08-04T17:30:29.440Z,101004.44
2023-08-04T17:32:57.712Z,101010.41
2023-08-04T17:35:25.930Z,101005.53
2023-08-04T17:37:54.048Z,101014.53
2023-08-04T17:40:22.213Z,101023.44
2023-08-04T17:42:51.763Z,101015.91
2023-08-04T17:45:19.832Z,101017.44
2023-08-04T17:47:48.026Z,101025.16
2023-08-04T17:50:16.261Z,101016.53
2023-08-04T17:52:44.388Z,101022.16
2023-08-04T17:55:12.516Z,101032.09
2023-08-04T17:57:40.636Z,101025.91
2023-08-04T18:00:11.635Z,101031.38
2023-08-04T18:02:39.790Z,101037.31
2023-08-04T18:05:08.474Z,101044.09
2023-08-04T18:07:36.646Z,101039.09
2023-08-04T18:10:05.496Z,101048.47
2023-08-04T18:12:33.639Z,101040.25
2023-08-04T18:15:01.868Z,101047.91
2023-08-04T18:17:31.395Z,101046.31
2023-08-04T18:19:59.537Z,101041.84
2023-08-04T18:22:27.666Z,101040.59
2023-08-04T18:24:55.780Z,101043.19
2023-08-04T18:27:23.890Z,101049.81
2023-08-04T18:29:53.153Z,101057.59
2023-08-04T18:32:21.326Z,101067.72
2023-08-04T18:34:50.785Z,101060.38
2023-08-04T18:37:18.872Z,101063.97
2023-08-04T18:39:47.075Z,101058.25
2023-08-04T18:42:15.877Z,101063.41
2023-08-04T18:44:44.006Z,101075.97
2023-08-04T18:47:12.125Z,101082.00
2023-08-04T18:49:40.363Z,101078.84
2023-08-04T18:52:10.120Z,101084.16
2023-08-04T18:54:38.239Z,101084.00
2023-08-04T18:57:06.907Z,101087.59
2023-08-04T18:59:34.999Z,101091.91
2023-08-04T19:02:03.161Z,101094.47
2023-08-04T19:04:31.276Z,101094.59
2023-08-04T19:06:59.392Z,101100.88
2023-08-04T19:09:28.888Z,101101.00
2023-08-04T19:11:57.005Z,101101.97
2023-08-04T19:14:25.203Z,101111.97
2023-08-04T19:16:53.529Z,101105.50
2023-08-04T19:19:21.728Z,101108.31
2023-08-04T19:21:49.983Z,101105.38
2023-08-04T19:24:18.525Z,101114.13
2023-08-04T19:26:48.383Z,101107.47
2023-08-04T19:29:16.780Z,101111.59
2023-08-04T19:31:44.887Z,101113.25
2023-08-04T19:34:14.322Z,101109.19
2023-08-04T19:36:42.588Z,101100.69
2023-08-04T19:39:10.825Z,101110.28
2023-08-04T19:41:38.953Z,101113.50
2023-08-04T19:44:08.460Z,101113.19
2023-08-04T19:46:36.775Z,101121.00
2023-08-04T19:49:04.972Z,101123.28
2023-08-04T19:51:33.062Z,101122.91
2023-08-04T19:54:01.230Z,101118.00
2023-08-04T19:56:29.313Z,101121.97
2023-08-04T19:58:57.446Z,101125.22
2023-08-04T20:01:26.945Z,101138.34
2023-08-04T20:03:56.076Z,101131.56
2023-08-04T20:06:24.222Z,101134.81
2023-08-04T20:08:52.315Z,101128.00
2023-08-04T20:11:20.741Z,101138.31
2023-08-04T20:13:48.869Z,101139.63
2023-08-04T20:16:20.455Z,101146.19
2023-08-04T20:18:50.326Z,101147.19
2023-08-04T20:21:19.244Z,101154.34
2023-08-04T20:23:47.413Z,101147.91
2023-08-04T20:26:16.605Z,101147.91
2023-08-04T20:28:46.144Z,101146.06
2023-08-04T20:31:17.406Z,101148.78
2023-08-04T20:33:45.694Z,101149.78
2023-08-04T20:36:16.352Z,101156.34
2023-08-04T20:38:44.562Z,101151.28
2023-08-04T20:41:13.876Z,101153.38
2023-08-04T20:43:43.483Z,101157.47
2023-08-04T20:46:12.301Z,101154.38
2023-08-04T20:48:40.557Z,101155.75
2023-08-04T20:51:08.829Z,101164.44
2023-08-04T20:53:40.132Z,101160.34
2023-08-04T20:56:09.003Z,101167.16
2023-08-04T20:58:39.021Z,101172.19
2023-08-04T21:01:08.984Z,101168.13
2023-08-04T21:03:38.665Z,101178.50
2023-08-04T21:06:07.320Z,101176.28
2023-08-04T21:08:35.610Z,101170.31
2023-08-04T21:11:05.076Z,101163.53
2023-08-04T21:13:33.435Z,101172.91
2023-08-04T21:16:01.611Z,101177.84
2023-08-04T21:18:29.816Z,101178.19
2023-08-04T21:20:58.064Z,101181.91
2023-08-04T21:23:26.659Z,101180.19
2023-08-04T21:25:55.170Z,101184.63
2023-08-04T21:28:24.771Z,101186.22
2023-08-04T21:30:53.419Z,101190.56
2023-08-04T21:33:22.632Z,101189.34
2023-08-04T21:35:59.104Z,101191.81
2023-08-04T21:38:27.325Z,101191.69
2023-08-04T21:40:57.479Z,101198.00
2023-08-04T21:43:28.929Z,101186.25
2023-08-04T21:45:56.073Z,101175.50
2023-08-04T21:48:24.204Z,101181.06
2023-08-04T21:50:52.309Z,101184.88
2023-08-04T21:53:20.590Z,101188.72
2023-08-04T21:55:54.810Z,101188.94
2023-08-04T21:58:23.066Z,101196.50
2023-08-04T22:00:52.562Z,101204.84
2023-08-04T22:03:20.809Z,101206.06
2023-08-04T22:05:52.761Z,101212.59
2023-08-04T22:08:20.905Z,101206.53
2023-08-04T22:10:48.998Z,101208.50
2023-08-04T22:13:17.103Z,101199.59
2023-08-04T22:15:45.312Z,101198.84
2023-08-04T22:18:14.800Z,101198.09
2023-08-04T22:20:43.669Z,101200.19
2023-08-04T22:23:11.766Z,101193.16
2023-08-04T22:25:39.889Z,101197.06
2023-08-04T22:28:10.313Z,101187.31
2023-08-04T22:30:39.502Z,101197.56
2023-08-04T22:33:07.685Z,101199.72
2023-08-04T22:35:37.169Z,101198.38
2023-08-04T22:38:05.335Z,101199.59
2023-08-04T22:40:33.470Z,101201.66
2023-08-04T22:43:01.704Z,101193.75
2023-08-04T22:45:29.850Z,101196.56
2023-08-04T22:47:58.068Z,101196.94
2023-08-04T22:50:26.276Z,101198.00
2023-08-04T22:52:55.748Z,101197.25
2023-08-04T22:55:23.877Z,101195.66
2023-08-04T22:57:51.983Z,101193.16
2023-08-04T23:00:20.286Z,101197.84
2023-08-04T23:02:48.859Z,101200.66
2023-08-04T23:05:17.154Z,101208.91
2023-08-04T23:07:45.271Z,101209.03
2023-08-04T23:10:14.741Z,101212.72
2023-08-04T23:12:43.158Z,101211.84
2023-08-04T23:15:12.191Z,101203.59
2023-08-04T23:17:40.317Z,101211.63
2023-08-04T23:20:09.416Z,101210.63
2023-08-04T23:22:37.499Z,101199.78
2023-08-04T23:25:06.220Z,101203.47
2023-08-04T23:27:35.696Z,101198.16
2023-08-04T23:30:05.016Z,101207.28
2023-08-04T23:32:33.281Z,101201.88
2023-08-04T23:35:01.437Z,101204.69
2023-08-04T23:37:29.527Z,101211.13
2023-08-04T23:39:57.631Z,101213.06
2023-08-04T23:42:26.728Z,101207.75
2023-08-04T23:44:56.182Z,101210.47
2023-08-04T23:47:24.313Z,101208.84
2023-08-04T23:49:52.458Z,101216.03
2023-08-04T23:52:20.545Z,101211.34
2023-08-04T23:54:48.757Z,101206.91
2023-08-04T23:57:16.915Z,101216.78
2023-08-04T23:59:45.033Z,101214.94
